Flight Track Log - Related Links

Times and Time Zones

All times are in EDT time to prevent confusion due to time zone crossing. See the SKW6528 flight status page for this flight to view local times or setup timezone preferences in your user account.

Time Position Orientation Groundspeed Altitude Reporting Facility
EDT Latitude Longitude Course Direction KTS MPH feet Rate Location/Type
Thu 08:35:08 PM 33.4344 -111.9033 89° East 207 238 4,600  Level Albuquerque Center
Thu 08:36:10 PM 33.4028 -111.8342 119° Southeast 272 313 6,900 2,226 Climbing Albuquerque Center
Thu 08:37:12 PM 33.3253 -111.8500 190° South 285 328 9,200 2,129 Climbing Albuquerque Center
Thu 08:38:14 PM 33.2969 -111.9408 250° West 316 364 11,300 2,195 Climbing Albuquerque Center
Thu 08:39:00 PM 33.4496 -112.7896 273° West  Level FlightAware Approximate
Thu 08:39:15 PM 33.3206 -112.0469 285° West 331 381 13,700  Level Albuquerque Center
Thu 08:40:17 PM 33.3444 -112.1819 282° West 344 396 16,400 2,371 Climbing Albuquerque Center
Thu 08:41:19 PM 33.3647 -112.3036 281° West 359 413 18,600 2,274 Climbing Albuquerque Center
Thu 08:42:21 PM 33.3850 -112.4169 282° West 359 413 21,100 2,226 Climbing Albuquerque Center
Thu 08:43:23 PM 33.4050 -112.5328 282° West 355 409 23,200 1,561 Climbing Albuquerque Center
Thu 08:44:24 PM 33.4258 -112.6564 281° West 364 419 24,300 1,113 Climbing Albuquerque Center
Thu 08:45:27 PM 33.4467 -112.7864 281° West 387 445 25,500 1,306 Climbing Albuquerque Center
Thu 08:46:28 PM 33.4861 -112.9128 291° West 401 461 27,000 1,463 Climbing Albuquerque Center
Thu 08:47:30 PM 33.5303 -113.0369 293° West 406 467 28,500 1,548 Climbing Albuquerque Center
Thu 08:48:32 PM 33.5833 -113.1853 293° West 405 466 30,200 1,548 Climbing Albuquerque Center
Thu 08:49:34 PM 33.6261 -113.3094 293° West 405 466 31,700 878 Climbing Albuquerque Center
Thu 08:50:35 PM 33.6686 -113.4317 293° West 402 463 32,000 146 Climbing Albuquerque Center
Thu 08:51:37 PM 33.7117 -113.5603 292° West 407 468 32,000  Level Albuquerque Center
Thu 08:52:39 PM 33.7558 -113.6869 293° West 410 472 32,000  Level Albuquerque Center
Thu 08:53:40 PM 33.8039 -113.8136 295° West 413 475 32,000  Level Albuquerque Center
Thu 08:54:42 PM 33.8356 -113.9472 286° West 420 483 32,000  Level Albuquerque Center
Thu 08:55:44 PM 33.8608 -114.1119 281° West 420 483 32,000 -293 Level Albuquerque Center
Thu 08:56:45 PM 33.8836 -114.2478 281° West 422 486 31,400 -585 Descending Albuquerque Center
Thu 08:57:47 PM 33.9047 -114.3872 280° West 425 489 30,800 -578 Descending Albuquerque Center
Thu 08:59:00 PM 33.9333 -114.5567 282° West 422 486 30,100 -356 Descending Los Angeles Center
Thu 09:00:02 PM 33.9375 -114.6964 272° West 418 481 30,000 -48 Descending Los Angeles Center
Thu 09:01:04 PM 33.9400 -114.8367 271° West 421 484 30,000  Level Los Angeles Center
Thu 09:02:07 PM 33.9431 -114.9803 272° West 429 494 30,000  Level Los Angeles Center
Thu 09:03:09 PM 33.9456 -115.1539 271° West 434 499 30,000  Level Los Angeles Center
Thu 09:04:11 PM 33.9472 -115.2992 271° West 436 502 30,000  Level Los Angeles Center
Thu 09:05:13 PM 33.9489 -115.4428 271° West 431 496 30,000  Level Los Angeles Center
Thu 09:06:15 PM 33.9497 -115.5875 270° West 434 499 30,000  Level Los Angeles Center
Thu 09:07:17 PM 33.9511 -115.7311 271° West 432 497 30,000  Level Los Angeles Center
Thu 09:08:31 PM 33.9522 -115.9000 271° West 425 489 30,000  Level Los Angeles Center
Thu 09:09:33 PM 33.9533 -116.0692 271° West 423 487 30,000 -48 Level Los Angeles Center
Thu 09:10:35 PM 33.9539 -116.2136 270° West 429 494 29,900 -581 Descending Los Angeles Center
Thu 09:11:37 PM 33.9539 -116.3583 270° West 433 498 28,800 -1,597 Descending Los Angeles Center
Thu 09:12:39 PM 33.9542 -116.5022 270° West 434 499 26,600 -2,274 Descending Los Angeles Center
Thu 09:13:41 PM 33.9544 -116.6742 270° West 431 496 24,100 -2,419 Descending Los Angeles Center
Thu 09:14:43 PM 33.9544 -116.8144 270° West 423 487 21,600 -2,359 Descending Los Angeles Center
Thu 09:15:38 PM 33.9500 -116.9333 267° West 378 435 19,500 -2,147 Descending Southern California TRACON
Thu 09:16:32 PM 33.9500 -117.0500 270° West 366 421 17,700 -1,474 Descending Southern California TRACON
Thu 09:17:32 PM 33.9500 -117.1667 270° West 347 399 16,700 -1,050 Descending Southern California TRACON
Thu 09:18:32 PM 33.9333 -117.2833 260° West 344 396 15,600 -1,050 Descending Southern California TRACON
Thu 09:19:32 PM 33.9333 -117.4000 270° West 346 398 14,600 -1,091 Descending Southern California TRACON
Thu 09:20:33 PM 33.9833 -117.5000 301° West 336 387 13,400 -1,304 Descending Southern California TRACON
Thu 09:21:27 PM 34.0167 -117.6000 292° West 341 392 12,100 -1,462 Descending Southern California TRACON
Thu 09:22:32 PM 34.0000 -117.7000 259° West 312 359 10,500 -1,400 Descending Southern California TRACON
Thu 09:23:27 PM 34.0000 -117.8000 270° West 305 351 9,300 -1,250 Descending Southern California TRACON
Thu 09:24:32 PM 33.9833 -117.9167 260° West 300 345 8,000 -1,238 Descending Southern California TRACON
Thu 09:25:33 PM 33.9667 -118.0000 256° West 294 338 6,700 -1,388 Descending Southern California TRACON
Thu 09:26:33 PM 33.9667 -118.1000 270° West 275 316 5,200 -1,613 Descending Southern California TRACON
Thu 09:27:06 PM 33.9625 -118.1464 264° West 285 328 4,200 -1,453 Descending Los Angeles Center
Thu 09:28:08 PM 33.9539 -118.2256 263° West 261 300 2,900 -1,258 Descending Los Angeles Center

Login

Don't have an account? Register now (free) for customized features, flight alerts, and more!